createdAt,value
2023-05-09T00:01:05.706Z,9.47
2023-05-09T00:03:33.291Z,9.77
2023-05-09T00:06:00.835Z,9.87
2023-05-09T00:08:43.175Z,10.07
2023-05-09T00:11:11.481Z,11.95
2023-05-09T00:13:39.014Z,10.27
2023-05-09T00:16:07.422Z,10.53
2023-05-09T00:18:34.930Z,9.53
2023-05-09T00:21:02.454Z,9.83
2023-05-09T00:23:30.021Z,9.67
2023-05-09T00:25:57.569Z,9.97
2023-05-09T00:28:25.088Z,9.30
2023-05-09T00:30:53.471Z,10.30
2023-05-09T00:33:21.791Z,10.37
2023-05-09T00:35:49.340Z,9.53
2023-05-09T00:38:16.946Z,9.37
2023-05-09T00:40:44.434Z,9.43
2023-05-09T00:43:11.984Z,9.57
2023-05-09T00:45:40.324Z,9.63
2023-05-09T00:48:07.899Z,10.10
2023-05-09T00:50:35.382Z,9.57
2023-05-09T00:53:03.006Z,9.67
2023-05-09T00:55:30.490Z,9.80
2023-05-09T00:57:58.794Z,9.30
2023-05-09T01:00:26.360Z,9.63
2023-05-09T01:02:54.093Z,10.00
2023-05-09T01:05:21.488Z,9.77
2023-05-09T01:08:01.666Z,10.30
2023-05-09T01:10:44.540Z,10.43
2023-05-09T01:13:17.921Z,12.03
2023-05-09T01:15:54.672Z,10.40
2023-05-09T01:18:30.800Z,10.43
2023-05-09T01:20:58.344Z,10.03
2023-05-09T01:23:46.929Z,9.70
2023-05-09T01:26:26.347Z,10.27
2023-05-09T01:29:14.830Z,10.80
2023-05-09T01:31:42.390Z,10.10
2023-05-09T01:34:09.923Z,10.97
2023-05-09T01:36:38.012Z,12.00
2023-05-09T01:39:05.682Z,10.80
2023-05-09T01:41:33.101Z,9.83
2023-05-09T01:44:00.928Z,11.98
2023-05-09T01:46:28.379Z,11.73
2023-05-09T01:48:55.888Z,12.75
2023-05-09T01:51:23.465Z,12.45
2023-05-09T01:53:51.038Z,10.97
2023-05-09T01:56:18.562Z,9.60
2023-05-09T01:58:46.425Z,9.60
2023-05-09T02:01:13.987Z,10.60
2023-05-09T02:03:42.262Z,10.97
2023-05-09T02:06:09.847Z,10.00
2023-05-09T02:08:37.396Z,9.83
2023-05-09T02:11:04.961Z,12.75
2023-05-09T02:13:33.086Z,10.90
2023-05-09T02:16:00.630Z,10.87
2023-05-09T02:18:28.922Z,10.30
2023-05-09T02:20:56.552Z,10.63
2023-05-09T02:23:24.046Z,9.67
2023-05-09T02:25:51.580Z,10.77
2023-05-09T02:28:19.220Z,10.37
2023-05-09T02:30:46.787Z,10.63
2023-05-09T02:33:14.312Z,10.37
2023-05-09T02:35:42.899Z,12.27
2023-05-09T02:38:10.269Z,11.13
2023-05-09T02:40:37.849Z,11.20
2023-05-09T02:43:06.190Z,10.37
2023-05-09T02:45:33.770Z,10.73
2023-05-09T02:48:01.355Z,11.03
2023-05-09T02:50:28.875Z,9.87
2023-05-09T02:52:56.449Z,10.83
2023-05-09T02:55:23.974Z,12.50
2023-05-09T02:57:58.973Z,12.82
2023-05-09T03:00:19.593Z,10.90
2023-05-09T03:02:47.243Z,10.67
2023-05-09T03:05:14.900Z,10.30
2023-05-09T03:07:42.249Z,10.27
2023-05-09T03:10:09.891Z,10.00
2023-05-09T03:12:38.304Z,10.80
2023-05-09T03:15:09.054Z,11.13
2023-05-09T03:17:36.653Z,10.80
2023-05-09T03:20:04.491Z,10.50
2023-05-09T03:22:31.721Z,10.73
2023-05-09T03:24:59.273Z,10.77
2023-05-09T03:27:26.948Z,10.93
2023-05-09T03:29:54.480Z,10.90
2023-05-09T03:32:22.027Z,12.63
2023-05-09T03:34:49.850Z,10.60
2023-05-09T03:37:17.404Z,11.23
2023-05-09T03:39:44.928Z,12.07
2023-05-09T03:42:13.111Z,11.70
2023-05-09T03:44:40.658Z,11.80
2023-05-09T03:47:08.980Z,11.40
2023-05-09T03:49:36.525Z,12.57
2023-05-09T03:52:04.058Z,12.43
2023-05-09T03:54:31.604Z,12.23
2023-05-09T03:57:00.234Z,11.67
2023-05-09T03:59:27.766Z,12.43
2023-05-09T04:01:55.335Z,12.40
2023-05-09T04:04:22.927Z,12.53
2023-05-09T04:06:50.471Z,11.93
2023-05-09T04:09:18.055Z,11.73
2023-05-09T04:11:45.637Z,12.30
2023-05-09T04:14:13.967Z,13.48
2023-05-09T04:16:41.594Z,12.43
2023-05-09T04:19:09.119Z,11.80
2023-05-09T04:21:36.673Z,11.50
2023-05-09T04:24:04.232Z,11.57
2023-05-09T04:26:31.843Z,14.30
2023-05-09T04:28:59.374Z,11.63
2023-05-09T04:31:27.747Z,12.10
2023-05-09T04:33:55.268Z,12.80
2023-05-09T04:36:22.804Z,11.83
2023-05-09T04:38:50.357Z,11.90
2023-05-09T04:41:18.535Z,11.30
2023-05-09T04:43:46.060Z,12.23
2023-05-09T04:46:14.415Z,11.57
2023-05-09T04:48:41.943Z,11.53
2023-05-09T04:51:09.482Z,11.07
2023-05-09T04:53:37.011Z,11.73
2023-05-09T04:56:05.374Z,11.47
2023-05-09T04:58:32.901Z,11.53
2023-05-09T05:01:00.436Z,14.43
2023-05-09T05:03:28.018Z,11.90
2023-05-09T05:05:55.551Z,11.27
2023-05-09T05:08:23.086Z,11.30
2023-05-09T05:10:51.439Z,10.83
2023-05-09T05:13:19.004Z,10.70
2023-05-09T05:15:46.604Z,11.70
2023-05-09T05:18:14.929Z,11.20
2023-05-09T05:20:42.460Z,11.87
2023-05-09T05:23:10.000Z,13.27
2023-05-09T05:25:37.613Z,11.30
2023-05-09T05:28:05.157Z,11.30
2023-05-09T05:30:34.307Z,10.97
2023-05-09T05:33:00.590Z,13.55
2023-05-09T05:35:28.086Z,11.73
2023-05-09T05:37:55.618Z,10.93
2023-05-09T05:40:23.218Z,10.90
2023-05-09T05:42:50.756Z,10.90
2023-05-09T05:45:19.073Z,11.80
2023-05-09T05:47:48.748Z,11.10
2023-05-09T05:50:16.261Z,11.87
2023-05-09T05:52:43.806Z,11.70
2023-05-09T05:55:11.409Z,11.50
2023-05-09T05:57:38.944Z,12.60
2023-05-09T06:00:09.896Z,12.20
2023-05-09T06:02:37.909Z,12.43
2023-05-09T06:05:05.422Z,12.60
2023-05-09T06:07:32.968Z,11.30
2023-05-09T06:10:00.563Z,12.57
2023-05-09T06:12:28.873Z,12.37
2023-05-09T06:14:56.418Z,12.93
2023-05-09T06:17:24.000Z,12.53
2023-05-09T06:19:51.555Z,12.37
2023-05-09T06:22:19.099Z,11.80
2023-05-09T06:24:46.682Z,12.47
2023-05-09T06:27:14.305Z,12.93
2023-05-09T06:29:41.765Z,12.40
2023-05-09T06:32:09.337Z,12.90
2023-05-09T06:34:36.911Z,12.90
2023-05-09T06:37:04.421Z,13.07
2023-05-09T06:39:32.791Z,11.90
2023-05-09T06:42:00.298Z,12.63
2023-05-09T06:44:27.872Z,11.87
2023-05-09T06:46:55.486Z,13.48
2023-05-09T06:49:23.018Z,12.30
2023-05-09T06:51:50.611Z,11.80
2023-05-09T06:54:18.229Z,12.68
2023-05-09T06:56:45.768Z,11.40
2023-05-09T06:59:13.332Z,11.33
2023-05-09T07:01:40.942Z,11.27
2023-05-09T07:04:08.435Z,10.00
2023-05-09T07:06:35.974Z,10.10
2023-05-09T07:09:04.315Z,10.37
2023-05-09T07:11:37.604Z,10.33
2023-05-09T07:14:05.162Z,10.20
2023-05-09T07:16:34.107Z,11.75
2023-05-09T07:19:00.322Z,11.35
2023-05-09T07:21:27.839Z,9.80
2023-05-09T07:23:55.444Z,9.27
2023-05-09T07:26:22.982Z,10.32
2023-05-09T07:28:51.271Z,9.47
2023-05-09T07:31:18.881Z,9.47
2023-05-09T07:33:46.389Z,9.77
2023-05-09T07:36:13.924Z,9.03
2023-05-09T07:38:41.482Z,9.10
2023-05-09T07:41:09.772Z,9.43
2023-05-09T07:43:38.075Z,8.30
2023-05-09T07:46:05.695Z,8.40
2023-05-09T07:48:33.172Z,7.47
2023-05-09T07:51:01.466Z,7.77
2023-05-09T07:53:29.062Z,7.77
2023-05-09T07:55:56.599Z,7.30
2023-05-09T07:58:24.127Z,8.23
2023-05-09T08:00:52.477Z,6.83
2023-05-09T08:03:20.150Z,7.13
2023-05-09T08:05:47.540Z,7.75
2023-05-09T08:08:15.724Z,6.90
2023-05-09T08:10:43.276Z,6.50
2023-05-09T08:13:10.805Z,6.80
2023-05-09T08:15:38.410Z,6.33
2023-05-09T08:18:05.952Z,6.40
2023-05-09T08:20:34.515Z,7.17
2023-05-09T08:23:02.877Z,6.40
2023-05-09T08:25:30.400Z,6.37
2023-05-09T08:27:57.936Z,6.85
2023-05-09T08:30:25.512Z,6.50
2023-05-09T08:32:53.096Z,5.43
2023-05-09T08:35:20.564Z,6.67
2023-05-09T08:37:50.816Z,6.83
2023-05-09T08:40:19.105Z,6.43
2023-05-09T08:42:46.631Z,6.60
2023-05-09T08:45:15.664Z,7.40
2023-05-09T08:47:43.241Z,6.93
2023-05-09T08:50:11.510Z,7.47
2023-05-09T08:52:39.057Z,7.07
2023-05-09T08:55:06.596Z,7.40
2023-05-09T08:57:37.329Z,8.37
2023-05-09T09:00:11.752Z,7.33
2023-05-09T09:02:39.306Z,6.97
2023-05-09T09:07:35.236Z,7.30
2023-05-09T09:10:03.558Z,7.10
2023-05-09T09:12:31.082Z,7.33
2023-05-09T09:14:58.675Z,6.95
2023-05-09T09:17:26.226Z,6.73
2023-05-09T09:19:53.762Z,6.30
2023-05-09T09:22:21.362Z,5.87
2023-05-09T09:24:48.891Z,5.63
2023-05-09T09:27:16.417Z,5.73
2023-05-09T09:29:44.758Z,5.43
2023-05-09T09:32:12.360Z,4.50
2023-05-09T09:34:39.835Z,5.30
2023-05-09T09:37:08.440Z,5.43
2023-05-09T09:39:35.973Z,5.20
2023-05-09T09:42:13.118Z,5.33
2023-05-09T09:44:40.656Z,5.23
2023-05-09T09:47:08.196Z,5.87
2023-05-09T09:49:35.752Z,5.63
2023-05-09T09:52:03.275Z,5.10
2023-05-09T09:54:31.590Z,5.33
2023-05-09T09:56:59.150Z,4.73
2023-05-09T09:59:26.892Z,4.77
2023-05-09T10:02:07.152Z,5.17
2023-05-09T10:04:31.824Z,5.50
2023-05-09T10:07:00.167Z,5.70
2023-05-09T10:09:27.719Z,5.17
2023-05-09T10:11:55.265Z,5.30
2023-05-09T10:14:22.782Z,5.13
2023-05-09T10:16:51.328Z,5.53
2023-05-09T10:19:18.761Z,5.40
2023-05-09T10:21:58.303Z,5.30
2023-05-09T10:24:28.863Z,5.67
2023-05-09T10:27:05.901Z,5.57
2023-05-09T10:29:36.060Z,5.87
2023-05-09T10:32:03.589Z,4.97
2023-05-09T10:34:31.167Z,6.00
2023-05-09T10:36:58.705Z,5.00
2023-05-09T10:39:26.234Z,5.00
2023-05-09T10:41:54.568Z,5.60
2023-05-09T10:44:22.094Z,4.97
2023-05-09T10:46:49.684Z,5.07
2023-05-09T10:49:17.199Z,5.00
2023-05-09T10:51:44.735Z,4.37
2023-05-09T10:54:16.123Z,4.33
2023-05-09T10:56:43.703Z,4.57
2023-05-09T10:59:33.106Z,4.30
2023-05-09T11:02:07.270Z,4.80
2023-05-09T11:04:34.805Z,4.80
2023-05-09T11:07:02.330Z,5.20
2023-05-09T11:09:33.001Z,5.57
2023-05-09T11:12:06.242Z,5.73
2023-05-09T11:14:36.592Z,5.13
2023-05-09T11:17:13.142Z,5.80
2023-05-09T11:19:43.576Z,4.80
2023-05-09T11:22:13.817Z,5.27
2023-05-09T11:24:48.153Z,5.10
2023-05-09T11:27:15.985Z,5.10
2023-05-09T11:29:43.528Z,4.83
2023-05-09T11:32:11.143Z,4.83
2023-05-09T11:34:38.644Z,5.57
2023-05-09T11:37:15.318Z,4.93
2023-05-09T11:40:00.939Z,4.70
2023-05-09T11:42:28.475Z,5.50
2023-05-09T11:44:56.009Z,4.60
2023-05-09T11:47:23.605Z,5.40
2023-05-09T11:49:51.120Z,5.33
2023-05-09T11:52:21.577Z,6.00
2023-05-09T11:54:49.136Z,5.73
2023-05-09T11:57:19.442Z,6.57
2023-05-09T11:59:46.977Z,5.73
2023-05-09T12:02:14.595Z,5.47
2023-05-09T12:04:42.135Z,5.80
2023-05-09T12:07:09.616Z,5.67
2023-05-09T12:09:37.963Z,5.83
2023-05-09T12:12:11.345Z,5.30
2023-05-09T12:14:38.890Z,6.15
2023-05-09T12:17:09.148Z,5.60
2023-05-09T12:19:36.713Z,5.40
2023-05-09T12:22:04.215Z,3.83
2023-05-09T12:24:31.804Z,4.75
2023-05-09T12:26:59.343Z,3.40
2023-05-09T12:29:26.931Z,3.70
2023-05-09T12:31:55.435Z,3.33
2023-05-09T12:34:22.916Z,3.40
2023-05-09T12:36:53.346Z,3.20
2023-05-09T12:39:21.517Z,3.03
2023-05-09T12:42:00.546Z,3.00
2023-05-09T12:44:23.572Z,3.17
2023-05-09T12:47:00.591Z,3.50
2023-05-09T12:49:28.062Z,3.10
2023-05-09T12:51:55.576Z,3.10
2023-05-09T12:54:24.192Z,3.10
2023-05-09T12:56:54.267Z,3.43
2023-05-09T12:59:25.270Z,3.13
2023-05-09T13:01:55.578Z,3.20
2023-05-09T13:04:23.853Z,3.37
2023-05-09T13:06:51.373Z,3.33
2023-05-09T13:09:19.714Z,2.73
2023-05-09T13:11:47.252Z,2.87
2023-05-09T13:14:14.781Z,3.10
2023-05-09T13:16:43.174Z,3.73
2023-05-09T13:19:10.658Z,3.67
2023-05-09T13:21:38.196Z,3.33
2023-05-09T13:24:05.958Z,2.97
2023-05-09T13:26:33.506Z,2.67
2023-05-09T13:29:01.804Z,2.27
2023-05-09T13:31:29.389Z,2.90
2023-05-09T13:33:56.912Z,2.77
2023-05-09T13:36:24.449Z,2.67
2023-05-09T13:38:53.146Z,2.83
2023-05-09T13:41:20.806Z,2.90
2023-05-09T13:43:48.279Z,2.87
2023-05-09T13:46:15.952Z,3.03
2023-05-09T13:48:43.389Z,2.80
2023-05-09T13:51:10.957Z,3.00
2023-05-09T13:53:39.426Z,2.87
2023-05-09T13:56:09.770Z,3.00
2023-05-09T13:58:37.260Z,3.10
2023-05-09T14:01:05.233Z,3.17
2023-05-09T14:03:32.765Z,2.67
2023-05-09T14:06:00.995Z,2.93
2023-05-09T14:08:28.578Z,2.47
2023-05-09T14:10:56.147Z,2.70
2023-05-09T14:13:23.706Z,2.33
2023-05-09T14:15:52.046Z,2.60
2023-05-09T14:18:21.084Z,0.80
2023-05-09T14:20:47.065Z,0.50
2023-05-09T14:23:16.028Z,0.30
2023-05-09T14:25:43.552Z,0.30
2023-05-09T14:28:11.119Z,0.50
2023-05-09T14:30:39.422Z,0.83
2023-05-09T14:33:06.981Z,0.30
2023-05-09T14:35:34.580Z,0.40
2023-05-09T14:38:02.820Z,0.30
2023-05-09T14:40:30.364Z,0.50
2023-05-09T14:42:57.906Z,0.55
2023-05-09T14:45:25.454Z,0.60
2023-05-09T14:47:53.056Z,0.50
2023-05-09T14:50:20.535Z,0.50
2023-05-09T14:52:48.129Z,0.50
2023-05-09T14:55:15.673Z,0.77
2023-05-09T14:57:43.202Z,0.80
2023-05-09T15:00:20.492Z,0.73
2023-05-09T15:02:38.527Z,0.53
2023-05-09T15:05:06.155Z,0.40
2023-05-09T15:07:33.735Z,0.80
2023-05-09T15:10:01.254Z,0.80
2023-05-09T15:12:28.781Z,0.88
2023-05-09T15:14:56.354Z,0.93
2023-05-09T15:17:23.892Z,0.80
2023-05-09T15:19:52.210Z,1.00
2023-05-09T15:22:19.767Z,0.80
2023-05-09T15:24:47.306Z,1.00
2023-05-09T15:27:14.827Z,0.90
2023-05-09T15:29:42.410Z,0.90
2023-05-09T15:32:10.706Z,1.00
2023-05-09T15:34:38.594Z,1.10
2023-05-09T15:37:06.148Z,0.90
2023-05-09T15:39:33.695Z,0.60
2023-05-09T15:42:01.228Z,0.90
2023-05-09T15:44:29.560Z,1.10
2023-05-09T15:46:57.097Z,1.07
2023-05-09T15:49:24.625Z,1.00
2023-05-09T15:51:52.958Z,1.00
2023-05-09T15:54:20.501Z,1.13
2023-05-09T15:56:48.027Z,1.20
2023-05-09T15:59:15.622Z,1.20
2023-05-09T16:01:43.454Z,1.40
2023-05-09T16:04:10.905Z,1.30
2023-05-09T16:06:38.484Z,1.17
2023-05-09T16:09:06.010Z,0.90
2023-05-09T16:11:34.310Z,1.10
2023-05-09T16:14:02.030Z,1.43
2023-05-09T16:16:29.501Z,1.10
2023-05-09T16:18:56.988Z,0.90
2023-05-09T16:21:25.338Z,0.93
2023-05-09T16:23:52.852Z,0.80
2023-05-09T16:26:21.300Z,0.80
2023-05-09T16:28:49.032Z,0.90
2023-05-09T16:31:16.593Z,0.77
2023-05-09T16:33:44.074Z,0.90
2023-05-09T16:36:12.423Z,1.07
2023-05-09T16:38:39.981Z,0.80
2023-05-09T16:41:07.518Z,0.80
2023-05-09T16:43:35.077Z,0.90
2023-05-09T16:46:02.635Z,1.07
2023-05-09T16:48:30.137Z,0.70
2023-05-09T16:50:58.478Z,1.40
2023-05-09T16:53:27.709Z,1.40
2023-05-09T16:55:53.539Z,1.57
2023-05-09T16:58:21.131Z,1.77
2023-05-09T17:00:48.706Z,3.57
2023-05-09T17:03:16.202Z,1.37
2023-05-09T17:05:44.545Z,1.13
2023-05-09T17:08:12.083Z,1.70
2023-05-09T17:10:41.439Z,1.10
2023-05-09T17:13:08.025Z,1.13
2023-05-09T17:15:35.469Z,2.40
2023-05-09T17:18:03.092Z,1.97
2023-05-09T17:20:31.333Z,1.60
2023-05-09T17:22:58.856Z,1.60
2023-05-09T17:25:26.405Z,1.60
2023-05-09T17:27:54.739Z,1.70
2023-05-09T17:30:23.160Z,2.47
2023-05-09T17:32:49.860Z,11.82
2023-05-09T17:35:17.683Z,4.53
2023-05-09T17:37:45.225Z,2.07
2023-05-09T17:40:13.809Z,1.60
2023-05-09T17:42:41.129Z,1.70
2023-05-09T17:45:09.552Z,1.33
2023-05-09T17:47:37.165Z,5.67
2023-05-09T17:50:05.498Z,3.23
2023-05-09T17:52:33.026Z,2.73
2023-05-09T17:55:01.338Z,1.83
2023-05-09T17:57:29.489Z,1.20
2023-05-09T17:59:57.026Z,1.87
2023-05-09T18:02:25.441Z,1.40
2023-05-09T18:04:52.938Z,1.30
2023-05-09T18:07:20.484Z,1.50
2023-05-09T18:09:48.012Z,1.20
2023-05-09T18:12:15.570Z,0.90
2023-05-09T18:14:43.121Z,1.20
2023-05-09T18:17:10.648Z,1.20
2023-05-09T18:19:38.764Z,1.50
2023-05-09T18:22:06.334Z,1.40
2023-05-09T18:24:34.595Z,1.30
2023-05-09T18:27:02.168Z,0.77
2023-05-09T18:29:29.714Z,1.33
2023-05-09T18:31:57.268Z,1.20
2023-05-09T18:34:25.579Z,1.00
2023-05-09T18:36:53.107Z,0.80
2023-05-09T18:39:20.660Z,0.77
2023-05-09T18:41:48.562Z,0.67
2023-05-09T18:44:16.151Z,0.80
2023-05-09T18:46:43.690Z,0.57
2023-05-09T18:49:11.271Z,0.60
2023-05-09T18:51:38.791Z,0.67
2023-05-09T18:54:06.321Z,0.57
2023-05-09T18:56:33.915Z,0.47
2023-05-09T18:59:01.460Z,0.70
2023-05-09T19:01:29.090Z,0.50
2023-05-09T19:03:56.605Z,0.47
2023-05-09T19:06:24.116Z,0.70
2023-05-09T19:08:52.446Z,0.50
2023-05-09T19:11:20.023Z,0.57
2023-05-09T19:13:50.806Z,0.65
2023-05-09T19:16:18.352Z,0.63
2023-05-09T19:18:45.885Z,0.70
2023-05-09T19:21:14.187Z,0.63
2023-05-09T19:23:41.709Z,0.60
2023-05-09T19:26:10.047Z,0.57
2023-05-09T19:28:37.571Z,0.50
2023-05-09T19:31:05.119Z,0.50
2023-05-09T19:33:32.927Z,0.73
2023-05-09T19:36:00.452Z,0.50
2023-05-09T19:38:27.998Z,0.60
2023-05-09T19:40:57.216Z,0.50
2023-05-09T19:43:24.744Z,0.47
2023-05-09T19:45:53.113Z,0.70
2023-05-09T19:48:21.389Z,0.60
2023-05-09T19:50:48.926Z,0.60
2023-05-09T19:53:16.486Z,0.63
2023-05-09T19:55:44.023Z,1.05
2023-05-09T19:58:11.583Z,0.70
2023-05-09T20:00:39.853Z,0.80
2023-05-09T20:03:07.532Z,0.80
2023-05-09T20:05:34.965Z,0.70
2023-05-09T20:08:02.502Z,1.20
2023-05-09T20:10:30.868Z,2.73
2023-05-09T20:12:58.444Z,1.87
2023-05-09T20:15:25.926Z,1.50
2023-05-09T20:17:53.877Z,0.90
2023-05-09T20:20:21.339Z,1.30
2023-05-09T20:22:48.860Z,1.30
2023-05-09T20:25:16.422Z,0.90
2023-05-09T20:27:44.000Z,0.90
2023-05-09T20:30:11.704Z,1.20
2023-05-09T20:32:39.350Z,1.13
2023-05-09T20:35:06.878Z,0.80
2023-05-09T20:37:35.181Z,1.27
2023-05-09T20:40:02.764Z,0.93
2023-05-09T20:42:30.287Z,1.00
2023-05-09T20:44:57.812Z,1.30
2023-05-09T20:47:25.455Z,0.90
2023-05-09T20:49:52.898Z,1.45
2023-05-09T20:52:20.432Z,1.20
2023-05-09T20:54:48.009Z,1.50
2023-05-09T20:57:15.521Z,1.40
2023-05-09T20:59:43.805Z,1.10
2023-05-09T21:02:12.170Z,1.50
2023-05-09T21:04:39.663Z,1.30
2023-05-09T21:07:07.223Z,1.30
2023-05-09T21:09:34.788Z,1.23
2023-05-09T21:12:02.314Z,1.20
2023-05-09T21:14:30.620Z,1.20
2023-05-09T21:17:00.660Z,1.63
2023-05-09T21:19:28.919Z,1.33
2023-05-09T21:21:56.440Z,1.20
2023-05-09T21:24:24.789Z,1.42
2023-05-09T21:26:52.331Z,1.27
2023-05-09T21:29:19.889Z,1.00
2023-05-09T21:31:47.494Z,1.23
2023-05-09T21:34:15.786Z,1.50
2023-05-09T21:36:43.314Z,1.17
2023-05-09T21:39:10.899Z,1.30
2023-05-09T21:41:39.178Z,1.30
2023-05-09T21:44:07.745Z,1.10
2023-05-09T21:46:36.275Z,1.57
2023-05-09T21:49:04.444Z,1.40
2023-05-09T21:51:31.970Z,1.50
2023-05-09T21:53:59.548Z,1.60
2023-05-09T21:56:27.081Z,1.30
2023-05-09T21:58:55.387Z,1.33
2023-05-09T22:01:23.014Z,1.40
2023-05-09T22:03:50.583Z,1.60
2023-05-09T22:06:18.790Z,1.67
2023-05-09T22:08:46.348Z,1.40
2023-05-09T22:11:14.908Z,1.80
2023-05-09T22:13:42.166Z,1.53
2023-05-09T22:16:09.865Z,1.50
2023-05-09T22:18:37.277Z,1.60
2023-05-09T22:21:04.798Z,1.63
2023-05-09T22:23:32.365Z,1.97
2023-05-09T22:25:59.914Z,2.00
2023-05-09T22:28:27.451Z,1.50
2023-05-09T22:30:55.030Z,1.80
2023-05-09T22:33:22.542Z,1.80
2023-05-09T22:35:50.086Z,2.30
2023-05-09T22:38:17.662Z,2.10
2023-05-09T22:40:45.201Z,1.97
2023-05-09T22:43:13.494Z,2.20
2023-05-09T22:45:41.109Z,2.20
2023-05-09T22:48:08.638Z,2.47
2023-05-09T22:50:36.136Z,2.27
2023-05-09T22:53:03.709Z,2.70
2023-05-09T22:55:32.011Z,2.40
2023-05-09T22:58:00.283Z,2.37
2023-05-09T23:00:27.857Z,2.77
2023-05-09T23:02:55.474Z,2.60
2023-05-09T23:05:23.684Z,2.37
2023-05-09T23:07:51.252Z,2.77
2023-05-09T23:10:18.936Z,3.07
2023-05-09T23:12:46.347Z,2.47
2023-05-09T23:15:14.654Z,2.77
2023-05-09T23:17:42.208Z,2.50
2023-05-09T23:20:09.777Z,2.70
2023-05-09T23:22:37.338Z,2.80
2023-05-09T23:25:04.927Z,2.37
2023-05-09T23:27:32.456Z,2.33
2023-05-09T23:30:00.002Z,3.00
2023-05-09T23:32:27.550Z,2.20
2023-05-09T23:34:55.820Z,2.00
2023-05-09T23:37:23.379Z,2.40
2023-05-09T23:39:50.911Z,2.47
2023-05-09T23:42:19.208Z,2.50
2023-05-09T23:44:47.096Z,2.07
2023-05-09T23:47:14.623Z,3.00
2023-05-09T23:49:42.924Z,2.30
2023-05-09T23:52:10.796Z,2.57
2023-05-09T23:54:38.315Z,2.50
2023-05-09T23:57:06.608Z,2.70
2023-05-09T23:59:34.210Z,2.30
